createdAt,value
2018-01-18T00:02:21.314Z,76.00
2018-01-18T00:04:48.166Z,76.00
2018-01-18T00:07:15.472Z,76.20
2018-01-18T00:09:42.436Z,76.20
2018-01-18T00:12:09.364Z,76.60
2018-01-18T00:14:36.209Z,76.30
2018-01-18T00:17:03.060Z,76.00
2018-01-18T00:19:30.041Z,76.30
2018-01-18T00:21:56.941Z,76.20
2018-01-18T00:24:23.889Z,76.20
2018-01-18T00:26:50.801Z,76.10
2018-01-18T00:29:17.680Z,76.80
2018-01-18T00:31:44.544Z,76.40
2018-01-18T00:34:11.386Z,76.10
2018-01-18T00:36:38.323Z,75.90
2018-01-18T00:39:05.260Z,75.60
2018-01-18T00:41:32.109Z,75.90
2018-01-18T00:43:58.952Z,75.10
2018-01-18T00:46:25.812Z,75.60
2018-01-18T00:48:52.668Z,75.20
2018-01-18T00:51:19.584Z,75.10
2018-01-18T00:53:46.420Z,75.40
2018-01-18T00:56:13.260Z,75.70
2018-01-18T00:58:40.224Z,76.00
2018-01-18T01:01:07.182Z,75.80
2018-01-18T01:03:34.115Z,76.00
2018-01-18T01:06:01.000Z,76.50
2018-01-18T01:08:27.902Z,76.50
2018-01-18T01:10:54.749Z,76.70
2018-01-18T01:13:21.694Z,76.90
2018-01-18T01:15:48.543Z,77.40
2018-01-18T01:18:15.489Z,77.40
2018-01-18T01:20:42.348Z,77.80
2018-01-18T01:23:09.222Z,78.50
2018-01-18T01:25:36.465Z,78.60
2018-01-18T01:28:03.372Z,78.70
2018-01-18T01:30:30.219Z,78.30
2018-01-18T01:32:57.159Z,78.80
2018-01-18T01:35:24.108Z,78.40
2018-01-18T01:37:50.972Z,78.70
2018-01-18T01:40:17.901Z,78.70
2018-01-18T01:42:44.845Z,79.00
2018-01-18T01:45:11.790Z,78.90
2018-01-18T01:47:38.649Z,78.60
2018-01-18T01:50:05.492Z,78.80
2018-01-18T01:52:32.356Z,79.00
2018-01-18T01:54:59.209Z,79.10
2018-01-18T01:57:26.113Z,79.20
2018-01-18T01:59:53.056Z,79.50
2018-01-18T02:02:19.927Z,79.70
2018-01-18T02:04:46.848Z,79.90
2018-01-18T02:07:13.704Z,79.80
2018-01-18T02:09:40.592Z,79.90
2018-01-18T02:12:07.898Z,80.90
2018-01-18T02:14:34.736Z,80.90
2018-01-18T02:17:01.712Z,81.50
2018-01-18T02:19:28.635Z,81.90
2018-01-18T02:21:55.496Z,81.90
2018-01-18T02:24:22.361Z,82.10
2018-01-18T02:26:49.270Z,82.20
2018-01-18T02:29:16.128Z,82.00
2018-01-18T02:31:43.060Z,82.10
2018-01-18T02:34:09.912Z,81.80
2018-01-18T02:36:36.845Z,82.30
2018-01-18T02:39:03.709Z,82.70
2018-01-18T02:41:30.636Z,82.30
2018-01-18T02:43:57.586Z,82.40
2018-01-18T02:46:24.532Z,82.50
2018-01-18T02:48:51.476Z,82.30
2018-01-18T02:51:18.429Z,82.20
2018-01-18T02:53:45.288Z,81.90
2018-01-18T02:56:12.212Z,81.90
2018-01-18T02:58:39.163Z,81.90
2018-01-18T03:01:06.003Z,81.60
2018-01-18T03:03:32.850Z,81.60
2018-01-18T03:05:59.793Z,81.40
2018-01-18T03:08:26.628Z,81.30
2018-01-18T03:10:53.588Z,81.20
2018-01-18T03:13:20.436Z,81.10
2018-01-18T03:15:47.380Z,80.80
2018-01-18T03:18:14.243Z,80.80
2018-01-18T03:20:41.221Z,81.00
2018-01-18T03:23:08.016Z,80.90
2018-01-18T03:25:34.960Z,80.90
2018-01-18T03:28:01.905Z,81.00
2018-01-18T03:30:28.864Z,80.90
2018-01-18T03:32:55.797Z,80.80
2018-01-18T03:35:22.745Z,80.80
2018-01-18T03:37:49.689Z,80.90
2018-01-18T03:40:16.637Z,81.10
2018-01-18T03:42:43.529Z,81.20
2018-01-18T03:45:10.776Z,81.50
2018-01-18T03:47:37.613Z,81.50
2018-01-18T03:50:04.464Z,81.80
2018-01-18T03:52:31.324Z,81.90
2018-01-18T03:54:58.576Z,82.20
2018-01-18T03:57:25.813Z,82.70
2018-01-18T03:59:52.724Z,82.70
2018-01-18T04:02:19.564Z,83.00
2018-01-18T04:04:46.423Z,82.90
2018-01-18T04:07:13.264Z,83.10
2018-01-18T04:09:40.296Z,83.50
2018-01-18T04:12:07.148Z,83.70
2018-01-18T04:14:34.136Z,84.00
2018-01-18T04:17:01.151Z,83.80
2018-01-18T04:19:28.084Z,84.00
2018-01-18T04:21:55.029Z,84.30
2018-01-18T04:24:21.865Z,84.80
2018-01-18T04:26:48.825Z,84.90
2018-01-18T04:29:15.778Z,84.50
2018-01-18T04:31:42.636Z,84.70
2018-01-18T04:34:09.621Z,85.30
2018-01-18T04:36:36.916Z,85.50
2018-01-18T04:39:03.786Z,85.50
2018-01-18T04:41:30.708Z,85.70
2018-01-18T04:43:57.605Z,85.70
2018-01-18T04:46:24.908Z,85.30
2018-01-18T04:48:51.752Z,85.30
2018-01-18T04:51:18.593Z,85.70
2018-01-18T04:53:45.447Z,85.90
2018-01-18T04:56:12.394Z,85.70
2018-01-18T04:58:39.337Z,85.50
2018-01-18T05:01:06.181Z,85.60
2018-01-18T05:03:33.041Z,85.80
2018-01-18T05:05:59.968Z,85.80
2018-01-18T05:08:26.914Z,85.10
2018-01-18T05:10:53.758Z,85.00
2018-01-18T05:13:20.707Z,85.00
2018-01-18T05:15:47.648Z,85.20
2018-01-18T05:18:14.691Z,85.50
2018-01-18T05:20:41.543Z,85.70
2018-01-18T05:23:08.384Z,85.70
2018-01-18T05:25:35.331Z,85.60
2018-01-18T05:28:02.280Z,85.70
2018-01-18T05:30:29.228Z,85.30
2018-01-18T05:32:56.090Z,84.70
2018-01-18T05:35:23.016Z,85.20
2018-01-18T05:37:49.983Z,85.30
2018-01-18T05:40:16.828Z,85.20
2018-01-18T05:42:43.752Z,85.70
2018-01-18T05:45:10.627Z,85.20
2018-01-18T05:47:37.545Z,85.00
2018-01-18T05:50:04.396Z,85.30
2018-01-18T05:52:31.236Z,84.80
2018-01-18T05:54:58.117Z,85.40
2018-01-18T05:57:25.029Z,85.80
2018-01-18T05:59:51.972Z,85.60
2018-01-18T06:02:18.912Z,85.50
2018-01-18T06:04:46.716Z,85.10
2018-01-18T06:07:13.628Z,85.10
2018-01-18T06:09:40.481Z,86.40
2018-01-18T06:12:07.416Z,85.80
2018-01-18T06:14:34.474Z,84.30
2018-01-18T06:17:01.317Z,83.70
2018-01-18T06:19:28.261Z,84.10
2018-01-18T06:21:55.200Z,84.10
2018-01-18T06:24:22.153Z,84.20
2018-01-18T06:26:49.097Z,84.40
2018-01-18T06:29:16.047Z,84.50
2018-01-18T06:31:42.988Z,84.90
2018-01-18T06:34:09.937Z,84.90
2018-01-18T06:36:36.880Z,85.30
2018-01-18T06:39:03.740Z,85.10
2018-01-18T06:41:30.677Z,84.90
2018-01-18T06:43:57.549Z,85.10
2018-01-18T06:46:24.389Z,85.10
2018-01-18T06:48:51.239Z,85.30
2018-01-18T06:51:18.152Z,85.20
2018-01-18T06:53:44.996Z,84.90
2018-01-18T06:56:11.937Z,84.60
2018-01-18T06:58:38.885Z,84.30
2018-01-18T07:01:05.728Z,84.20
2018-01-18T07:03:32.676Z,84.40
2018-01-18T07:05:59.720Z,84.10
2018-01-18T07:08:26.665Z,83.90
2018-01-18T07:10:53.521Z,83.50
2018-01-18T07:13:20.465Z,83.30
2018-01-18T07:15:47.405Z,82.30
2018-01-18T07:18:14.357Z,82.70
2018-01-18T07:20:41.201Z,82.80
2018-01-18T07:23:08.244Z,82.70
2018-01-18T07:25:35.093Z,83.10
2018-01-18T07:28:01.936Z,82.60
2018-01-18T07:30:28.881Z,82.40
2018-01-18T07:32:55.829Z,82.40
2018-01-18T07:35:22.798Z,82.50
2018-01-18T07:37:49.692Z,82.20
2018-01-18T07:40:16.528Z,82.40
2018-01-18T07:42:43.412Z,82.40
2018-01-18T07:45:10.357Z,82.70
2018-01-18T07:47:37.207Z,83.10
2018-01-18T07:50:04.050Z,83.40
2018-01-18T07:52:30.912Z,83.00
2018-01-18T07:54:57.837Z,82.60
2018-01-18T07:57:24.789Z,82.40
2018-01-18T07:59:51.728Z,82.40
2018-01-18T08:02:18.673Z,82.30
2018-01-18T08:04:45.721Z,82.30
2018-01-18T08:07:12.564Z,82.50
2018-01-18T08:09:39.408Z,82.60
2018-01-18T08:12:06.289Z,82.10
2018-01-18T08:14:33.208Z,81.90
2018-01-18T08:17:00.148Z,82.10
2018-01-18T08:19:26.998Z,82.10
2018-01-18T08:21:53.944Z,82.30
2018-01-18T08:24:20.884Z,81.90
2018-01-18T08:26:47.833Z,81.80
2018-01-18T08:29:14.776Z,82.20
2018-01-18T08:31:41.736Z,81.80
2018-01-18T08:34:08.673Z,81.50
2018-01-18T08:36:35.537Z,81.30
2018-01-18T08:39:02.378Z,82.20
2018-01-18T08:41:29.312Z,82.30
2018-01-18T08:43:56.260Z,82.80
2018-01-18T08:46:23.101Z,82.90
2018-01-18T08:48:50.050Z,83.80
2018-01-18T08:51:16.990Z,84.10
2018-01-18T08:53:43.849Z,84.00
2018-01-18T08:56:10.705Z,84.30
2018-01-18T08:58:37.559Z,84.50
2018-01-18T09:01:04.468Z,84.70
2018-01-18T09:03:31.413Z,84.60
2018-01-18T09:05:58.456Z,84.80
2018-01-18T09:08:25.366Z,85.10
2018-01-18T09:10:52.180Z,85.50
2018-01-18T09:13:19.192Z,85.30
2018-01-18T09:15:46.037Z,85.60
2018-01-18T09:18:13.001Z,85.90
2018-01-18T09:20:39.941Z,86.00
2018-01-18T09:23:06.886Z,85.80
2018-01-18T09:25:33.729Z,85.30
2018-01-18T09:28:00.591Z,85.30
2018-01-18T09:30:27.522Z,85.20
2018-01-18T09:32:54.469Z,85.30
2018-01-18T09:35:21.328Z,85.40
2018-01-18T09:37:48.212Z,85.40
2018-01-18T09:40:15.444Z,84.70
2018-01-18T09:42:42.363Z,84.70
2018-01-18T09:45:09.297Z,85.00
2018-01-18T09:47:36.248Z,84.50
2018-01-18T09:50:03.186Z,84.40
2018-01-18T09:52:30.009Z,84.10
2018-01-18T09:54:56.877Z,83.50
2018-01-18T09:57:23.724Z,82.70
2018-01-18T09:59:50.561Z,82.50
2018-01-18T10:02:17.424Z,82.00
2018-01-18T10:04:44.361Z,82.10
2018-01-18T10:07:11.300Z,81.60
2018-01-18T10:09:38.188Z,81.30
2018-01-18T10:12:05.057Z,80.80
2018-01-18T10:14:32.392Z,80.40
2018-01-18T10:16:59.209Z,80.40
2018-01-18T10:19:26.072Z,79.90
2018-01-18T10:21:53.021Z,79.60
2018-01-18T10:24:19.922Z,79.60
2018-01-18T10:26:46.772Z,79.40
2018-01-18T10:29:13.644Z,78.80
2018-01-18T10:31:40.572Z,78.80
2018-01-18T10:34:07.514Z,79.40
2018-01-18T10:36:34.565Z,79.20
2018-01-18T10:39:01.405Z,78.50
2018-01-18T10:41:28.275Z,78.60
2018-01-18T10:43:55.193Z,78.60
2018-01-18T10:46:22.146Z,78.60
2018-01-18T10:48:49.084Z,79.70
2018-01-18T10:51:16.041Z,80.00
2018-01-18T10:53:42.907Z,80.70
2018-01-18T10:56:09.918Z,80.90
2018-01-18T10:58:36.768Z,81.50
2018-01-18T11:01:03.712Z,82.00
2018-01-18T11:03:30.660Z,81.80
2018-01-18T11:05:57.611Z,81.00
2018-01-18T11:08:24.499Z,79.50
2018-01-18T11:10:51.325Z,78.60
2018-01-18T11:13:18.168Z,76.70
2018-01-18T11:15:45.088Z,76.00
2018-01-18T11:18:12.033Z,75.80
2018-01-18T11:20:38.984Z,75.30
2018-01-18T11:23:05.829Z,73.00
2018-01-18T11:25:32.773Z,73.20
2018-01-18T11:27:59.717Z,71.60
2018-01-18T11:30:26.617Z,72.10
2018-01-18T11:32:53.868Z,71.60
2018-01-18T11:35:21.164Z,70.10
2018-01-18T11:37:48.009Z,70.20
2018-01-18T11:40:14.969Z,69.00
2018-01-18T11:42:41.912Z,69.30
2018-01-18T11:45:08.858Z,69.80
2018-01-18T11:47:35.800Z,69.70
2018-01-18T11:50:02.645Z,68.60
2018-01-18T11:52:29.687Z,69.20
2018-01-18T11:54:56.636Z,69.10
2018-01-18T11:57:23.589Z,69.40
2018-01-18T11:59:50.538Z,69.40
2018-01-18T12:02:17.576Z,67.80
2018-01-18T12:04:44.429Z,67.90
2018-01-18T12:07:11.280Z,66.40
2018-01-18T12:09:38.224Z,64.30
2018-01-18T12:12:05.160Z,63.10
2018-01-18T12:14:32.113Z,62.60
2018-01-18T12:16:58.972Z,62.20
2018-01-18T12:19:25.902Z,60.90
2018-01-18T12:21:52.848Z,61.00
2018-01-18T12:24:19.705Z,60.90
2018-01-18T12:26:46.640Z,61.60
2018-01-18T12:29:13.496Z,61.40
2018-01-18T12:31:40.430Z,61.80
2018-01-18T12:34:07.312Z,61.60
2018-01-18T12:36:34.215Z,61.60
2018-01-18T12:39:01.160Z,62.10
2018-01-18T12:41:28.010Z,62.00
2018-01-18T12:43:54.870Z,61.80
2018-01-18T12:46:21.715Z,62.20
2018-01-18T12:48:48.649Z,63.00
2018-01-18T12:51:15.599Z,63.40
2018-01-18T12:53:42.457Z,63.90
2018-01-18T12:56:09.380Z,63.70
2018-01-18T12:58:36.329Z,63.90
2018-01-18T13:01:03.274Z,63.00
2018-01-18T13:03:30.117Z,63.10
2018-01-18T13:05:57.110Z,63.40
2018-01-18T13:08:24.107Z,63.20
2018-01-18T13:10:50.932Z,62.10
2018-01-18T13:13:17.792Z,61.80
2018-01-18T13:15:44.653Z,61.20
2018-01-18T13:18:11.595Z,60.90
2018-01-18T13:20:38.439Z,60.70
2018-01-18T13:23:05.283Z,60.20
2018-01-18T13:25:32.250Z,59.30
2018-01-18T13:27:59.080Z,58.20
2018-01-18T13:30:25.936Z,58.60
2018-01-18T13:32:52.869Z,58.80
2018-01-18T13:35:19.724Z,58.70
2018-01-18T13:37:46.657Z,58.40
2018-01-18T13:40:13.596Z,58.90
2018-01-18T13:42:40.434Z,59.80
2018-01-18T13:45:07.302Z,60.30
2018-01-18T13:47:34.238Z,60.30
2018-01-18T13:50:01.199Z,61.70
2018-01-18T13:52:28.132Z,63.20
2018-01-18T13:54:54.997Z,64.70
2018-01-18T13:57:21.916Z,65.20
2018-01-18T13:59:48.860Z,65.70
2018-01-18T14:02:15.724Z,66.10
2018-01-18T14:04:42.659Z,66.50
2018-01-18T14:07:09.603Z,67.00
2018-01-18T14:09:36.436Z,66.60
2018-01-18T14:12:03.292Z,66.60
2018-01-18T14:14:30.236Z,66.50
2018-01-18T14:16:57.092Z,66.50
2018-01-18T14:19:24.119Z,66.70
2018-01-18T14:21:50.939Z,64.80
2018-01-18T14:24:18.229Z,63.00
2018-01-18T14:26:45.069Z,62.90
2018-01-18T14:29:11.909Z,62.50
2018-01-18T14:31:38.860Z,62.00
2018-01-18T14:34:05.805Z,62.40
2018-01-18T14:36:32.772Z,61.80
2018-01-18T14:38:59.704Z,61.70
2018-01-18T14:41:26.548Z,62.00
2018-01-18T14:43:53.490Z,62.30
2018-01-18T14:46:20.328Z,62.10
2018-01-18T14:48:47.168Z,62.10
2018-01-18T14:51:14.024Z,61.90
2018-01-18T14:53:40.968Z,61.80
2018-01-18T14:56:07.943Z,61.50
2018-01-18T14:58:34.780Z,62.00
2018-01-18T15:01:01.704Z,62.10
2018-01-18T15:03:28.745Z,62.10
2018-01-18T15:05:55.607Z,62.50
2018-01-18T15:08:22.541Z,62.10
2018-01-18T15:10:49.408Z,62.40
2018-01-18T15:13:16.249Z,62.60
2018-01-18T15:15:43.176Z,62.90
2018-01-18T15:18:10.220Z,63.10
2018-01-18T15:20:37.165Z,63.40
2018-01-18T15:23:04.024Z,63.20
2018-01-18T15:25:30.857Z,63.20
2018-01-18T15:27:57.903Z,63.40
2018-01-18T15:30:24.752Z,63.60
2018-01-18T15:32:56.106Z,63.40
2018-01-18T15:35:22.960Z,63.50
2018-01-18T15:37:49.896Z,63.30
2018-01-18T15:40:16.847Z,63.60
2018-01-18T15:42:43.793Z,63.60
2018-01-18T15:45:10.656Z,63.90
2018-01-18T15:47:37.522Z,63.50
2018-01-18T15:50:04.429Z,63.30
2018-01-18T15:52:31.285Z,63.30
2018-01-18T15:54:58.216Z,63.40
2018-01-18T15:57:25.157Z,63.40
2018-01-18T15:59:52.000Z,63.50
2018-01-18T16:02:18.840Z,63.60
2018-01-18T16:04:45.705Z,63.90
2018-01-18T16:07:12.637Z,64.00
2018-01-18T16:09:39.486Z,63.80
2018-01-18T16:12:06.349Z,63.90
2018-01-18T16:14:33.210Z,63.80
2018-01-18T16:17:00.117Z,63.80
2018-01-18T16:19:27.061Z,63.90
2018-01-18T16:21:54.021Z,64.10
2018-01-18T16:24:20.959Z,64.10
2018-01-18T16:26:47.933Z,64.20
2018-01-18T16:29:14.867Z,64.00
2018-01-18T16:31:41.793Z,64.20
2018-01-18T16:34:08.733Z,64.20
2018-01-18T16:36:35.592Z,64.50
2018-01-18T16:39:02.434Z,64.50
2018-01-18T16:41:29.297Z,64.80
2018-01-18T16:43:56.165Z,64.80
2018-01-18T16:46:23.065Z,65.10
2018-01-18T16:48:49.912Z,65.40
2018-01-18T16:51:16.856Z,65.70
2018-01-18T16:53:43.800Z,65.60
2018-01-18T16:56:10.660Z,65.80
2018-01-18T16:58:37.608Z,66.00
2018-01-18T17:01:04.440Z,65.90
2018-01-18T17:03:31.400Z,66.10
2018-01-18T17:05:58.285Z,66.20
2018-01-18T17:08:25.676Z,66.40
2018-01-18T17:10:52.533Z,66.40
2018-01-18T17:13:19.486Z,66.40
2018-01-18T17:15:46.428Z,66.50
2018-01-18T17:18:13.390Z,66.60
2018-01-18T17:20:40.232Z,66.40
2018-01-18T17:23:07.097Z,66.70
2018-01-18T17:25:34.057Z,66.70
2018-01-18T17:28:01.452Z,66.90
2018-01-18T17:30:28.272Z,66.90
2018-01-18T17:32:55.141Z,67.10
2018-01-18T17:35:21.999Z,67.10
2018-01-18T17:37:48.857Z,67.10
2018-01-18T17:40:15.788Z,67.10
2018-01-18T17:42:42.652Z,67.00
2018-01-18T17:45:09.585Z,66.90
2018-01-18T17:47:36.464Z,66.90
2018-01-18T17:50:03.716Z,67.30
2018-01-18T17:52:30.688Z,67.30
2018-01-18T17:54:57.594Z,67.30
2018-01-18T17:57:24.440Z,67.40
2018-01-18T17:59:51.300Z,67.20
2018-01-18T18:02:18.194Z,67.10
2018-01-18T18:04:45.139Z,66.90
2018-01-18T18:07:11.997Z,66.70
2018-01-18T18:09:38.937Z,66.90
2018-01-18T18:12:05.826Z,66.50
2018-01-18T18:14:32.729Z,66.40
2018-01-18T18:16:59.672Z,66.40
2018-01-18T18:19:26.616Z,66.70
2018-01-18T18:21:53.501Z,66.90
2018-01-18T18:24:20.400Z,67.40
2018-01-18T18:26:47.245Z,68.10
2018-01-18T18:29:14.228Z,68.10
2018-01-18T18:31:41.148Z,67.80
2018-01-18T18:34:08.094Z,68.10
2018-01-18T18:36:35.041Z,68.10
2018-01-18T18:39:01.916Z,68.10
2018-01-18T18:41:28.841Z,68.50
2018-01-18T18:43:55.789Z,68.70
2018-01-18T18:46:22.652Z,68.60
2018-01-18T18:48:49.569Z,68.60
2018-01-18T18:51:16.428Z,68.90
2018-01-18T18:53:43.368Z,69.30
2018-01-18T18:56:10.221Z,69.30
2018-01-18T18:58:37.200Z,69.20
2018-01-18T19:01:04.803Z,68.80
2018-01-18T19:03:31.657Z,68.80
2018-01-18T19:05:58.629Z,68.70
2018-01-18T19:08:25.544Z,68.30
2018-01-18T19:10:52.417Z,68.10
2018-01-18T19:13:19.272Z,68.20
2018-01-18T19:15:46.344Z,68.30
2018-01-18T19:18:13.253Z,68.10
2018-01-18T19:20:40.117Z,68.60
2018-01-18T19:23:07.442Z,68.50
2018-01-18T19:25:34.281Z,68.50
2018-01-18T19:28:01.145Z,68.80
2018-01-18T19:30:27.998Z,68.70
2018-01-18T19:32:54.913Z,68.70
2018-01-18T19:35:21.856Z,68.80
2018-01-18T19:37:48.804Z,68.90
2018-01-18T19:40:15.861Z,69.30
2018-01-18T19:42:42.708Z,69.80
2018-01-18T19:45:09.572Z,69.70
2018-01-18T19:47:36.439Z,69.50
2018-01-18T19:50:03.779Z,69.50
2018-01-18T19:52:31.092Z,69.50
2018-01-18T19:54:57.948Z,69.50
2018-01-18T19:57:24.897Z,69.70
2018-01-18T19:59:51.926Z,70.00
2018-01-18T20:02:18.772Z,70.20
2018-01-18T20:04:45.664Z,70.10
2018-01-18T20:07:13.805Z,69.80
2018-01-18T20:09:40.740Z,69.80
2018-01-18T20:12:07.696Z,69.70
2018-01-18T20:14:34.541Z,70.20
2018-01-18T20:17:01.429Z,69.10
2018-01-18T20:19:28.286Z,69.30
2018-01-18T20:21:55.525Z,69.90
2018-01-18T20:24:22.925Z,70.20
2018-01-18T20:26:49.777Z,70.20
2018-01-18T20:29:16.634Z,70.20
2018-01-18T20:31:43.495Z,70.10
2018-01-18T20:34:10.445Z,69.90
2018-01-18T20:36:37.364Z,70.30
2018-01-18T20:39:04.256Z,70.20
2018-01-18T20:41:31.960Z,70.70
2018-01-18T20:43:58.993Z,70.70
2018-01-18T20:46:26.052Z,70.90
2018-01-18T20:48:52.989Z,70.80
2018-01-18T20:51:20.171Z,70.90
2018-01-18T20:53:47.113Z,70.70
2018-01-18T20:56:13.953Z,70.50
2018-01-18T20:58:40.811Z,70.60
2018-01-18T21:01:07.662Z,70.80
2018-01-18T21:03:34.545Z,71.10
2018-01-18T21:06:01.937Z,71.30
2018-01-18T21:08:28.765Z,71.30
2018-01-18T21:10:55.937Z,71.30
2018-01-18T21:13:22.893Z,71.70
2018-01-18T21:15:49.838Z,71.60
2018-01-18T21:18:16.700Z,71.60
2018-01-18T21:20:43.536Z,71.60
2018-01-18T21:23:10.470Z,71.10
2018-01-18T21:25:37.316Z,71.30
2018-01-18T21:28:04.181Z,71.60
2018-01-18T21:30:31.042Z,71.30
2018-01-18T21:32:58.087Z,71.50
2018-01-18T21:35:24.925Z,71.40
2018-01-18T21:37:51.785Z,71.40
2018-01-18T21:40:18.784Z,71.90
2018-01-18T21:42:45.629Z,71.90
2018-01-18T21:45:12.496Z,71.90
2018-01-18T21:47:39.337Z,72.40
2018-01-18T21:50:06.265Z,72.70
2018-01-18T21:52:33.116Z,72.40
2018-01-18T21:54:59.966Z,72.40
2018-01-18T21:57:26.896Z,72.00
2018-01-18T21:59:53.840Z,71.90
2018-01-18T22:02:20.788Z,72.30
2018-01-18T22:04:47.648Z,72.40
2018-01-18T22:07:14.489Z,72.60
2018-01-18T22:09:41.357Z,72.30
2018-01-18T22:12:08.276Z,72.20
2018-01-18T22:14:35.221Z,72.40
2018-01-18T22:17:02.169Z,72.70
2018-01-18T22:19:29.116Z,73.30
2018-01-18T22:21:55.977Z,73.40
2018-01-18T22:24:22.836Z,73.60
2018-01-18T22:26:49.701Z,74.00
2018-01-18T22:29:16.993Z,74.70
2018-01-18T22:31:43.940Z,74.70
2018-01-18T22:34:10.782Z,75.00
2018-01-18T22:36:37.733Z,75.40
2018-01-18T22:39:04.601Z,75.90
2018-01-18T22:41:31.483Z,76.10
2018-01-18T22:43:58.729Z,77.20
2018-01-18T22:46:26.028Z,77.50
2018-01-18T22:48:53.001Z,77.50
2018-01-18T22:51:19.845Z,78.30
2018-01-18T22:53:46.769Z,78.90
2018-01-18T22:56:13.616Z,79.50
2018-01-18T22:58:40.557Z,79.70
2018-01-18T23:01:07.425Z,80.00
2018-01-18T23:03:34.348Z,79.60
2018-01-18T23:06:01.292Z,79.80
2018-01-18T23:08:28.240Z,80.00
2018-01-18T23:10:55.104Z,80.40
2018-01-18T23:13:22.041Z,80.30
2018-01-18T23:15:48.885Z,80.50
2018-01-18T23:18:15.917Z,80.40
2018-01-18T23:20:42.764Z,80.50
2018-01-18T23:23:09.712Z,80.70
2018-01-18T23:25:36.656Z,80.90
2018-01-18T23:28:03.562Z,80.90
2018-01-18T23:30:30.381Z,81.20
2018-01-18T23:32:57.294Z,80.90
2018-01-18T23:35:24.241Z,82.00
2018-01-18T23:37:51.100Z,83.00
2018-01-18T23:40:18.037Z,84.00
2018-01-18T23:42:44.908Z,84.30
2018-01-18T23:45:11.752Z,83.90
2018-01-18T23:47:38.664Z,84.00
2018-01-18T23:50:05.605Z,83.10
2018-01-18T23:52:32.461Z,83.00
2018-01-18T23:54:59.309Z,82.70
2018-01-18T23:57:26.248Z,82.70
2018-01-18T23:59:53.196Z,82.80
